Time;durP1;ratioP1;P1;durP2;ratioP2;P2;SDS_P1;SDS_P2;PMS_P1;PMS_P2;Temp;Humidity;BMP_temperature;BMP_pressure;BME280_temperature;BME280_humidity;BME280_pressure;Samples;Min_cycle;Max_cycle;Signal;HPM_P1;HPM_P2
2023/09/04 00:01:01;;;;;;;7.07;5.70;;;;;;;16.94;100.00;102637.91;5171755;28;20061;-69
2023/09/04 00:03:32;;;;;;;6.03;5.50;;;;;;;16.72;100.00;102638.31;5174855;28;20493;-69
2023/09/04 00:06:04;;;;;;;6.53;5.90;;;;;;;16.93;100.00;102641.50;5190679;28;20041;-69
2023/09/04 00:08:35;;;;;;;6.23;5.63;;;;;;;16.91;100.00;102638.09;5190730;28;20037;-69
2023/09/04 00:11:07;;;;;;;7.77;5.70;;;;;;;16.81;100.00;102632.47;5191431;28;20026;-69
2023/09/04 00:13:38;;;;;;;6.77;5.93;;;;;;;16.78;100.00;102637.94;5174793;28;20031;-69
2023/09/04 00:16:09;;;;;;;6.30;5.70;;;;;;;16.81;100.00;102625.41;5192862;28;20070;-69
2023/09/04 00:18:41;;;;;;;9.70;6.03;;;;;;;16.66;100.00;102629.78;5190831;28;20124;-69
2023/09/04 00:21:13;;;;;;;6.40;5.80;;;;;;;16.71;100.00;102631.31;5192691;28;20034;-68
2023/09/04 00:23:44;;;;;;;8.43;6.20;;;;;;;16.65;100.00;102622.78;5191557;28;20062;-69
2023/09/04 00:26:15;;;;;;;6.60;6.00;;;;;;;16.56;100.00;102620.69;5192146;28;20095;-68
2023/09/04 00:28:47;;;;;;;8.30;5.47;;;;;;;16.50;100.00;102624.53;5187408;28;20478;-69
2023/09/04 00:31:18;;;;;;;6.13;5.53;;;;;;;16.28;100.00;102624.88;5172459;28;20058;-69
2023/09/04 00:33:50;;;;;;;6.60;5.37;;;;;;;16.37;100.00;102623.50;5171986;28;20118;-69
2023/09/04 00:36:21;;;;;;;5.83;5.23;;;;;;;16.43;100.00;102623.16;5171104;28;20502;-69
2023/09/04 00:38:52;;;;;;;6.97;6.27;;;;;;;16.31;100.00;102619.41;5172342;28;20070;-69
2023/09/04 00:41:23;;;;;;;6.63;5.87;;;;;;;16.24;100.00;102618.06;5180106;28;20038;-69
2023/09/04 00:43:55;;;;;;;7.20;6.00;;;;;;;16.21;100.00;102616.44;5191025;28;20031;-69
2023/09/04 00:46:27;;;;;;;7.50;5.97;;;;;;;16.15;100.00;102608.84;5192384;28;20173;-68
2023/09/04 00:48:58;;;;;;;7.33;6.37;;;;;;;16.17;100.00;102617.53;5192328;28;20027;-69
2023/09/04 00:51:30;;;;;;;5.83;5.23;;;;;;;16.32;100.00;102626.41;5191065;28;20137;-69
2023/09/04 00:54:01;;;;;;;5.67;5.13;;;;;;;16.15;100.00;102625.56;5186483;28;20034;-67
2023/09/04 00:56:33;;;;;;;7.37;6.13;;;;;;;16.11;100.00;102624.00;5170267;28;20042;-66
2023/09/04 00:59:04;;;;;;;6.90;6.17;;;;;;;16.15;100.00;102622.91;5183249;28;20023;-67
2023/09/04 01:01:35;;;;;;;8.57;5.77;;;;;;;16.33;100.00;102622.84;5192552;28;20030;-67
2023/09/04 01:04:07;;;;;;;6.87;6.27;;;;;;;16.09;100.00;102624.09;5190979;28;20034;-67
2023/09/04 01:06:39;;;;;;;7.97;7.17;;;;;;;16.04;100.00;102617.38;5191305;28;20058;-66
2023/09/04 01:09:10;;;;;;;8.70;6.33;;;;;;;16.08;100.00;102614.47;5191824;28;20026;-66
2023/09/04 01:11:48;;;;;;;8.33;6.30;;;;;;;16.03;100.00;102615.66;5176818;28;20023;-66
2023/09/04 01:14:19;;;;;;;6.90;6.03;;;;;;;15.96;100.00;102613.34;5171597;28;20039;-66
2023/09/04 01:16:52;;;;;;;11.20;5.57;;;;;;;15.98;100.00;102618.53;5171300;28;20038;-67
2023/09/04 01:19:23;;;;;;;7.23;6.23;;;;;;;15.83;100.00;102605.22;5171318;28;20023;-67
2023/09/04 01:21:55;;;;;;;6.67;5.97;;;;;;;15.79;100.00;102610.75;5170888;28;20033;-67
2023/09/04 01:24:26;;;;;;;7.53;6.20;;;;;;;15.92;100.00;102609.16;5169631;28;20701;-67
2023/09/04 01:27:25;;;;;;;7.77;6.90;;;;;;;16.19;100.00;102607.75;5171383;28;20027;-66
2023/09/04 01:30:05;;;;;;;8.00;7.13;;;;;;;15.78;100.00;102601.13;5170964;28;20022;-66
2023/09/04 01:32:43;;;;;;;9.43;7.27;;;;;;;15.83;100.00;102602.56;5171544;28;20054;-66
2023/09/04 01:35:17;;;;;;;17.30;8.03;;;;;;;15.76;100.00;102598.56;5170734;28;20051;-67
2023/09/04 01:37:49;;;;;;;7.57;6.80;;;;;;;15.70;100.00;102617.38;5170457;28;20030;-67
2023/09/04 01:40:20;;;;;;;7.70;6.87;;;;;;;15.61;100.00;102610.81;5170207;28;20023;-66
2023/09/04 01:42:52;;;;;;;7.60;6.90;;;;;;;15.52;100.00;102617.41;5170980;28;20029;-66
2023/09/04 01:45:23;;;;;;;7.40;6.70;;;;;;;15.71;100.00;102617.28;5170926;28;20058;-67
2023/09/04 01:47:54;;;;;;;7.87;6.93;;;;;;;15.69;100.00;102619.16;5183788;28;20026;-67
2023/09/04 01:50:26;;;;;;;8.33;7.53;;;;;;;15.53;100.00;102605.94;5189400;28;20080;-67
2023/09/04 01:52:57;;;;;;;9.40;7.83;;;;;;;15.68;100.00;102606.91;5190207;28;20094;-67
2023/09/04 01:55:28;;;;;;;7.53;6.83;;;;;;;15.75;100.00;102611.84;5189358;28;20035;-66
2023/09/04 01:58:00;;;;;;;7.57;6.80;;;;;;;15.74;100.00;102603.09;5190672;28;20041;-67
2023/09/04 02:00:31;;;;;;;7.83;7.03;;;;;;;15.59;100.00;102608.25;5191058;28;20026;-67
2023/09/04 02:03:03;;;;;;;9.30;7.20;;;;;;;15.40;100.00;102612.78;5190011;28;20033;-67
2023/09/04 02:05:38;;;;;;;9.47;7.33;;;;;;;15.54;100.00;102607.63;5190389;28;20123;-67
2023/09/04 02:08:09;;;;;;;7.80;6.87;;;;;;;15.48;100.00;102603.53;5189601;28;20823;-66
2023/09/04 02:10:41;;;;;;;7.83;7.03;;;;;;;15.72;100.00;102589.97;5190127;28;20034;-67
2023/09/04 02:13:13;;;;;;;7.93;7.13;;;;;;;15.45;100.00;102601.06;5189454;28;20026;-68
2023/09/04 02:15:44;;;;;;;8.83;7.13;;;;;;;15.33;100.00;102593.78;5191231;28;20026;-69
2023/09/04 02:18:16;;;;;;;7.70;7.00;;;;;;;15.29;100.00;102602.81;5188991;28;20045;-68
2023/09/04 02:20:48;;;;;;;8.67;7.77;;;;;;;15.34;100.00;102587.59;5173425;28;20488;-69
2023/09/04 02:23:19;;;;;;;8.90;8.00;;;;;;;15.21;100.00;102590.00;5169815;28;20030;-69
2023/09/04 02:25:51;;;;;;;9.17;7.57;;;;;;;15.33;100.00;102586.72;5169195;28;20035;-69
2023/09/04 02:28:23;;;;;;;9.10;7.73;;;;;;;15.21;100.00;102579.44;5170654;28;20031;-69
2023/09/04 02:30:54;;;;;;;7.83;7.07;;;;;;;15.34;100.00;102582.31;5170758;28;20166;-68
2023/09/04 02:33:25;;;;;;;9.33;6.97;;;;;;;15.24;100.00;102581.91;5190686;28;20034;-68
2023/09/04 02:35:57;;;;;;;10.97;8.13;;;;;;;15.29;100.00;102579.06;5188892;28;20125;-70
2023/09/04 02:38:28;;;;;;;9.13;8.23;;;;;;;15.03;100.00;102576.81;5190549;28;20038;-68
2023/09/04 02:41:00;;;;;;;8.90;8.00;;;;;;;15.02;100.00;102574.25;5189236;28;20034;-69
2023/09/04 02:43:31;;;;;;;9.20;8.30;;;;;;;15.08;100.00;102579.22;5188858;28;20125;-69
2023/09/04 02:46:02;;;;;;;8.00;7.23;;;;;;;14.89;100.00;102561.69;5188803;28;20490;-68
2023/09/04 02:48:34;;;;;;;10.47;8.93;;;;;;;15.08;100.00;102566.88;5189071;28;20066;-69
2023/09/04 02:51:05;;;;;;;10.30;8.57;;;;;;;14.98;100.00;102579.69;5191215;28;20110;-69
2023/09/04 02:53:36;;;;;;;11.13;8.47;;;;;;;15.13;100.00;102569.28;5193862;28;20026;-68
2023/09/04 02:56:08;;;;;;;9.10;7.80;;;;;;;14.98;100.00;102561.22;5192516;28;20031;-68
2023/09/04 02:58:39;;;;;;;10.27;8.43;;;;;;;14.90;100.00;102568.69;5194567;28;20113;-68
2023/09/04 03:01:13;;;;;;;8.97;8.07;;;;;;;15.12;100.00;102562.28;5193446;28;20041;-68
2023/09/04 03:03:46;;;;;;;11.10;9.40;;;;;;;14.87;100.00;102568.84;5194258;28;20499;-68
2023/09/04 03:06:17;;;;;;;10.07;8.43;;;;;;;14.87;100.00;102559.13;5192861;28;20019;-69
2023/09/04 03:08:48;;;;;;;9.13;8.30;;;;;;;14.97;100.00;102559.53;5193961;28;20038;-68
2023/09/04 03:11:20;;;;;;;10.60;9.50;;;;;;;14.84;100.00;102558.44;5192538;28;20030;-68
2023/09/04 03:13:51;;;;;;;10.43;9.33;;;;;;;15.00;100.00;102559.38;5192734;28;20026;-68
2023/09/04 03:16:23;;;;;;;10.00;9.00;;;;;;;14.83;100.00;102551.44;5193329;28;20124;-69
2023/09/04 03:18:55;;;;;;;10.63;9.23;;;;;;;14.86;100.00;102546.03;5194229;28;20030;-69
2023/09/04 03:21:26;;;;;;;9.40;8.50;;;;;;;14.76;100.00;102538.56;5190655;28;20382;-68
2023/09/04 03:23:57;;;;;;;10.27;9.33;;;;;;;14.78;100.00;102537.63;5193870;28;20062;-69
2023/09/04 03:26:29;;;;;;;10.60;9.50;;;;;;;14.84;100.00;102535.56;5193774;28;20100;-68
2023/09/04 03:29:00;;;;;;;11.03;9.90;;;;;;;14.80;100.00;102530.50;5193044;28;20040;-70
2023/09/04 03:31:31;;;;;;;10.57;9.57;;;;;;;14.88;100.00;102536.25;5192670;28;20116;-68
2023/09/04 03:34:02;;;;;;;10.70;9.43;;;;;;;14.85;100.00;102539.06;5193382;28;20026;-68
2023/09/04 03:36:34;;;;;;;11.30;10.17;;;;;;;14.87;100.00;102542.47;5192359;28;20035;-69
2023/09/04 03:39:06;;;;;;;11.47;10.30;;;;;;;14.93;100.00;102546.56;5191728;28;20037;-68
2023/09/04 03:41:38;;;;;;;10.77;9.67;;;;;;;14.99;100.00;102541.81;5193681;28;20489;-69
2023/09/04 03:44:09;;;;;;;10.57;9.50;;;;;;;14.81;100.00;102548.03;5191272;28;20045;-69
2023/09/04 03:46:40;;;;;;;13.20;9.93;;;;;;;14.90;100.00;102537.03;5193278;28;20034;-68
2023/09/04 03:49:12;;;;;;;12.00;10.80;;;;;;;14.79;100.00;102539.31;5192598;28;20080;-68
2023/09/04 03:51:44;;;;;;;13.43;9.60;;;;;;;14.86;100.00;102535.47;5192282;28;20030;-69
2023/09/04 03:54:15;;;;;;;11.30;10.20;;;;;;;14.83;100.00;102536.50;5193329;28;20057;-68
2023/09/04 03:56:46;;;;;;;12.33;10.60;;;;;;;14.71;100.00;102532.66;5192930;28;20119;-68
2023/09/04 03:59:18;;;;;;;11.17;10.03;;;;;;;14.72;100.00;102522.94;5191737;28;20034;-68
2023/09/04 04:01:49;;;;;;;12.10;10.63;;;;;;;14.68;100.00;102521.41;5191360;28;20026;-68
2023/09/04 04:04:20;;;;;;;12.03;10.47;;;;;;;14.70;100.00;102520.38;5191731;28;20031;-68
2023/09/04 04:06:52;;;;;;;12.07;10.80;;;;;;;14.74;100.00;102516.69;5192506;28;20022;-68
2023/09/04 04:09:23;;;;;;;12.93;9.43;;;;;;;14.66;100.00;102525.91;5192751;28;20019;-68
2023/09/04 04:11:54;;;;;;;10.90;9.90;;;;;;;14.75;100.00;102528.06;5190816;28;20042;-68
2023/09/04 04:14:26;;;;;;;11.93;10.53;;;;;;;14.52;100.00;102532.75;5182371;28;20146;-69
2023/09/04 04:16:57;;;;;;;13.00;10.30;;;;;;;14.63;100.00;102527.75;5172982;28;20030;-68
2023/09/04 04:19:29;;;;;;;13.17;11.73;;;;;;;14.67;100.00;102524.97;5188873;28;20034;-69
2023/09/04 04:22:00;;;;;;;12.67;11.43;;;;;;;14.57;100.00;102535.13;5190384;28;20590;-70
2023/09/04 04:24:31;;;;;;;12.33;11.17;;;;;;;14.66;100.00;102539.94;5191386;28;20030;-68
2023/09/04 04:27:03;;;;;;;12.57;11.20;;;;;;;14.59;100.00;102528.00;5192452;28;20110;-68
2023/09/04 04:29:34;;;;;;;13.23;10.97;;;;;;;14.44;100.00;102525.19;5191421;28;20061;-68
2023/09/04 04:32:06;;;;;;;18.80;11.90;;;;;;;14.56;100.00;102525.50;5170641;28;20089;-68
2023/09/04 04:34:37;;;;;;;12.10;10.80;;;;;;;14.61;100.00;102526.13;5178413;28;20126;-68
2023/09/04 04:37:08;;;;;;;12.03;10.83;;;;;;;14.45;100.00;102520.78;5191592;28;20113;-68
2023/09/04 04:39:40;;;;;;;15.03;11.70;;;;;;;14.40;100.00;102527.13;5190901;28;20358;-69
2023/09/04 04:42:11;;;;;;;12.33;11.03;;;;;;;14.56;100.00;102529.00;5192305;28;20035;-68
2023/09/04 04:44:43;;;;;;;13.17;11.83;;;;;;;14.37;100.00;102527.28;5192294;28;20465;-68
2023/09/04 04:47:14;;;;;;;12.20;11.00;;;;;;;14.37;100.00;102518.50;5190756;28;20070;-68
2023/09/04 04:49:45;;;;;;;11.60;10.50;;;;;;;14.51;100.00;102523.09;5192074;28;20018;-69
2023/09/04 04:52:16;;;;;;;13.30;11.90;;;;;;;14.36;100.00;102519.44;5191366;28;20027;-68
2023/09/04 04:54:48;;;;;;;14.60;12.00;;;;;;;14.37;100.00;102524.66;5190529;28;20235;-69
2023/09/04 04:57:19;;;;;;;12.57;11.27;;;;;;;14.45;100.00;102510.25;5190950;28;20704;-68
2023/09/04 04:59:50;;;;;;;12.80;11.47;;;;;;;14.49;100.00;102517.91;5192156;28;20026;-68
2023/09/04 05:02:22;;;;;;;14.47;11.50;;;;;;;14.41;100.00;102514.81;5189739;28;20172;-69
2023/09/04 05:04:53;;;;;;;13.17;11.77;;;;;;;14.37;100.00;102510.59;5192215;28;20595;-68
2023/09/04 05:07:24;;;;;;;12.53;10.93;;;;;;;14.40;100.00;102519.22;5179168;28;20062;-68
2023/09/04 05:09:57;;;;;;;12.63;11.33;;;;;;;14.44;100.00;102525.19;5171586;28;20030;-68
2023/09/04 05:12:28;;;;;;;12.80;11.40;;;;;;;14.36;100.00;102519.44;5171226;28;20034;-68
2023/09/04 05:14:59;;;;;;;13.47;12.13;;;;;;;14.44;100.00;102527.84;5176129;28;20050;-69
2023/09/04 05:17:30;;;;;;;13.50;12.20;;;;;;;14.35;100.00;102525.63;5190481;28;20096;-69
2023/09/04 05:20:03;;;;;;;12.17;11.00;;;;;;;14.39;100.00;102532.47;5191032;28;20031;-69
2023/09/04 05:22:35;;;;;;;13.87;12.37;;;;;;;14.26;100.00;102525.16;5189362;28;20114;-68
2023/09/04 05:25:08;;;;;;;17.27;11.90;;;;;;;14.47;100.00;102527.66;5191006;28;20030;-68
2023/09/04 05:27:39;;;;;;;13.33;11.50;;;;;;;14.47;100.00;102529.47;5191603;28;20042;-68
2023/09/04 05:30:11;;;;;;;14.87;11.37;;;;;;;14.46;100.00;102528.63;5182682;28;20027;-68
2023/09/04 05:32:42;;;;;;;14.00;11.97;;;;;;;14.44;100.00;102527.84;5169700;28;20058;-69
2023/09/04 05:35:13;;;;;;;13.30;11.70;;;;;;;14.50;100.00;102529.31;5186221;28;20061;-67
2023/09/04 05:37:45;;;;;;;13.47;12.17;;;;;;;14.49;100.00;102530.22;5190324;28;20036;-68
2023/09/04 05:40:16;;;;;;;13.23;12.03;;;;;;;14.47;100.00;102527.66;5190982;28;20043;-68
2023/09/04 05:42:47;;;;;;;14.00;11.20;;;;;;;14.64;100.00;102531.25;5191555;28;20060;-67
2023/09/04 05:45:22;;;;;;;14.33;12.30;;;;;;;14.56;100.00;102523.72;5191071;28;20052;-67
2023/09/04 05:47:53;;;;;;;12.05;10.88;;;;;;;14.56;100.00;102538.69;5171788;28;20718;-67
2023/09/04 05:50:24;;;;;;;14.63;12.93;;;;;;;14.47;100.00;102524.19;5187455;28;20093;-68
2023/09/04 05:52:55;;;;;;;14.57;13.07;;;;;;;14.57;100.00;102530.72;5191325;28;20032;-68
2023/09/04 05:55:27;;;;;;;17.20;12.70;;;;;;;14.66;100.00;102524.09;5191238;28;20030;-67
2023/09/04 05:57:58;;;;;;;14.50;13.10;;;;;;;14.57;100.00;102530.72;5191235;28;20034;-69
2023/09/04 06:00:29;;;;;;;13.20;11.90;;;;;;;14.69;100.00;102529.25;5191197;28;20149;-69
2023/09/04 06:03:00;;;;;;;13.63;12.33;;;;;;;14.67;100.00;102536.38;5190379;28;20026;-70
2023/09/04 06:05:32;;;;;;;15.47;12.67;;;;;;;14.82;100.00;102528.66;5190611;28;20482;-67
2023/09/04 06:08:03;;;;;;;16.03;13.03;;;;;;;14.80;100.00;102530.50;5191161;28;20030;-67
2023/09/04 06:10:35;;;;;;;13.47;11.93;;;;;;;14.71;100.00;102532.66;5189861;28;20073;-69
2023/09/04 06:13:06;;;;;;;15.33;13.80;;;;;;;14.93;100.00;102536.88;5191000;28;20027;-67
2023/09/04 06:15:38;;;;;;;14.73;13.33;;;;;;;14.96;100.00;102538.47;5190614;28;20034;-70
2023/09/04 06:18:09;;;;;;;14.70;13.20;;;;;;;14.94;100.00;102529.81;5190690;28;20030;-68
2023/09/04 06:20:40;;;;;;;14.10;12.53;;;;;;;15.09;100.00;102533.44;5190123;28;20021;-69
2023/09/04 06:23:12;;;;;;;15.57;13.20;;;;;;;15.14;100.00;102528.75;5190517;28;20026;-68
2023/09/04 06:25:43;;;;;;;14.80;13.23;;;;;;;15.22;100.00;102534.47;5191936;28;20022;-68
2023/09/04 06:28:16;;;;;;;15.57;14.07;;;;;;;15.28;100.00;102535.09;5193421;28;20052;-68
2023/09/04 06:30:49;;;;;;;14.53;13.23;;;;;;;15.29;100.00;102536.81;5194391;28;20027;-69
2023/09/04 06:33:21;;;;;;;15.67;14.07;;;;;;;15.39;100.00;102531.88;5193711;28;20501;-69
2023/09/04 06:35:53;;;;;;;17.10;15.40;;;;;;;15.37;100.00;102529.34;5193924;28;20042;-70
2023/09/04 06:38:24;;;;;;;16.37;14.63;;;;;;;15.48;100.00;102526.13;5162785;28;20030;-70
2023/09/04 06:40:58;;;;;;;15.57;14.07;;;;;;;15.43;100.00;102523.72;5155137;28;20053;-68
2023/09/04 06:43:30;;;;;;;15.80;14.30;;;;;;;15.56;100.00;102520.41;5191606;28;20077;-69
2023/09/04 06:46:02;;;;;;;16.40;14.70;;;;;;;15.58;100.00;102521.19;5190132;28;20078;-70
2023/09/04 06:48:34;;;;;;;15.97;13.57;;;;;;;15.64;100.00;102523.47;5187151;28;20070;-69
2023/09/04 06:51:05;;;;;;;14.83;13.33;;;;;;;15.72;100.00;102521.28;5191825;28;20738;-69
2023/09/04 06:53:37;;;;;;;15.90;14.40;;;;;;;15.75;100.00;102527.31;5194223;28;20026;-69
2023/09/04 06:56:08;;;;;;;15.27;13.17;;;;;;;15.90;100.00;102523.81;5191216;28;20042;-69
2023/09/04 06:58:40;;;;;;;15.80;13.97;;;;;;;15.85;100.00;102505.59;5193181;28;20057;-70
2023/09/04 07:01:11;;;;;;;15.43;13.90;;;;;;;16.02;100.00;102508.25;5191662;28;20030;-69
2023/09/04 07:03:42;;;;;;;16.53;14.40;;;;;;;16.09;100.00;102515.75;5192355;28;20563;-69
2023/09/04 07:06:14;;;;;;;19.77;14.50;;;;;;;16.19;100.00;102512.59;5192571;28;20030;-69
2023/09/04 07:08:45;;;;;;;16.73;13.83;;;;;;;16.35;100.00;102519.63;5193353;28;20481;-69
2023/09/04 07:11:16;;;;;;;18.47;14.33;;;;;;;16.38;100.00;102519.44;5191701;28;20144;-70
2023/09/04 07:13:48;;;;;;;16.37;14.30;;;;;;;16.53;100.00;102512.44;5193337;28;20034;-68
2023/09/04 07:16:19;;;;;;;16.00;13.40;;;;;;;16.61;100.00;102504.88;5191025;28;20034;-69
2023/09/04 07:18:50;;;;;;;15.07;13.57;;;;;;;16.76;100.00;102515.47;5193753;28;20034;-68
2023/09/04 07:21:22;;;;;;;16.43;13.53;;;;;;;16.86;100.00;102513.97;5191852;28;20034;-68
2023/09/04 07:23:53;;;;;;;13.97;12.57;;;;;;;16.96;100.00;102506.34;5192433;28;20160;-69
2023/09/04 07:26:24;;;;;;;17.90;13.93;;;;;;;17.05;100.00;102508.41;5191831;28;20029;-68
2023/09/04 07:28:55;;;;;;;13.37;11.63;;;;;;;17.26;100.00;102509.91;5193344;28;20105;-70
2023/09/04 07:31:28;;;;;;;14.53;11.73;;;;;;;17.41;100.00;102501.00;5192827;28;20050;-70
2023/09/04 07:34:01;;;;;;;13.20;11.83;;;;;;;17.68;100.00;102511.72;5174104;28;20593;-70
2023/09/04 07:36:32;;;;;;;12.17;10.97;;;;;;;17.86;100.00;102507.88;5180858;28;20069;-70
2023/09/04 07:39:04;;;;;;;12.50;11.20;;;;;;;18.07;100.00;102518.03;5192966;28;20097;-69
2023/09/04 07:41:35;;;;;;;12.43;11.13;;;;;;;18.36;100.00;102523.25;5193082;28;20058;-70
2023/09/04 07:44:06;;;;;;;15.00;12.50;;;;;;;18.58;100.00;102524.47;5192475;28;20022;-69
2023/09/04 07:46:38;;;;;;;13.07;10.83;;;;;;;19.22;100.00;102517.50;5192316;28;20577;-68
2023/09/04 07:49:09;;;;;;;12.17;10.40;;;;;;;19.67;100.00;102515.28;5193439;28;20065;-68
2023/09/04 07:51:40;;;;;;;10.73;9.63;;;;;;;20.13;100.00;102508.41;5192303;28;20014;-68
2023/09/04 07:54:12;;;;;;;10.87;9.77;;;;;;;20.78;100.00;102507.97;5192690;28;20031;-68
2023/09/04 07:56:43;;;;;;;9.30;8.40;;;;;;;21.37;100.00;102499.88;5192748;28;20540;-68
2023/09/04 07:59:14;;;;;;;13.15;7.68;;;;;;;21.98;100.00;102497.69;5188638;28;20061;-69
2023/09/04 08:01:46;;;;;;;9.07;8.15;;;;;;;22.65;100.00;102493.97;5181698;28;20019;-69
2023/09/04 08:04:17;;;;;;;9.38;7.82;;;;;;;22.91;100.00;102498.88;5183755;28;20747;-70
2023/09/04 08:06:48;;;;;;;9.27;6.90;;;;;;;23.36;100.00;102504.78;5189136;28;20045;-69
2023/09/04 08:09:20;;;;;;;10.80;7.30;;;;;;;23.89;100.00;102501.94;5185743;28;20037;-69
2023/09/04 08:11:51;;;;;;;8.65;6.80;;;;;;;24.23;91.75;102497.97;5188724;28;20018;-69
2023/09/04 08:14:22;;;;;;;8.30;6.88;;;;;;;24.81;88.54;102490.78;5186717;28;20569;-69
2023/09/04 08:16:54;;;;;;;12.32;5.80;;;;;;;25.66;79.24;102496.19;5190501;28;20038;-69
2023/09/04 08:19:25;;;;;;;7.25;6.00;;;;;;;26.16;70.21;102496.59;5191876;28;20069;-69
2023/09/04 08:21:58;;;;;;;6.95;5.75;;;;;;;26.44;67.56;102501.84;5185543;28;20477;-68
2023/09/04 08:24:29;;;;;;;8.90;5.57;;;;;;;27.08;61.31;102499.81;5171529;28;20381;-68
2023/09/04 08:27:00;;;;;;;8.27;5.30;;;;;;;26.61;63.26;102508.16;5187480;28;20031;-72
2023/09/04 08:29:31;;;;;;;10.77;6.30;;;;;;;27.59;61.96;102505.19;5190844;28;20054;-70
2023/09/04 08:32:03;;;;;;;10.40;5.45;;;;;;;27.70;58.71;102506.72;5191857;28;20018;-69
2023/09/04 08:34:34;;;;;;;10.40;6.32;;;;;;;27.99;54.04;102505.41;5191490;28;20076;-70
2023/09/04 08:37:06;;;;;;;9.02;5.35;;;;;;;28.45;51.15;102493.22;5190609;28;20040;-69
2023/09/04 08:39:37;;;;;;;6.28;5.35;;;;;;;29.05;48.85;102492.88;5192027;28;20509;-70
2023/09/04 08:42:11;;;;;;;7.32;4.93;;;;;;;29.10;48.58;102495.03;5191036;28;20459;-70
2023/09/04 08:44:43;;;;;;;5.55;5.05;;;;;;;29.92;46.51;102497.38;5192125;28;20026;-69
2023/09/04 08:47:15;;;;;;;7.03;4.35;;;;;;;29.03;49.00;102504.88;5190925;28;20026;-70
2023/09/04 08:49:47;;;;;;;9.52;4.40;;;;;;;30.01;45.98;102503.53;5191224;28;20030;-69
2023/09/04 08:52:18;;;;;;;6.13;4.60;;;;;;;29.69;43.76;102509.06;5187913;28;20030;-71
2023/09/04 08:54:50;;;;;;;7.65;4.47;;;;;;;29.59;43.77;102511.94;5191912;28;20842;-71
2023/09/04 08:57:24;;;;;;;5.40;4.30;;;;;;;30.45;42.45;102498.41;5179746;28;20038;-70
2023/09/04 08:59:55;;;;;;;5.88;4.55;;;;;;;30.42;42.39;102502.34;5187399;28;20038;-70
2023/09/04 09:02:28;;;;;;;18.92;7.05;;;;;;;31.15;39.64;102504.34;5185031;28;20088;-70
2023/09/04 09:05:00;;;;;;;10.05;3.90;;;;;;;29.81;44.91;102490.56;5190458;28;20045;-71
2023/09/04 09:07:32;;;;;;;6.05;3.97;;;;;;;28.95;45.82;102487.69;5204080;28;20460;-73
2023/09/04 09:10:04;;;;;;;6.85;3.75;;;;;;;28.50;45.88;102482.78;5189974;28;20097;-72
2023/09/04 09:12:36;;;;;;;7.65;3.63;;;;;;;28.40;46.95;102484.81;5191387;28;20042;-72
2023/09/04 09:15:07;;;;;;;8.27;3.92;;;;;;;28.13;47.77;102485.03;5188770;28;20088;-71
2023/09/04 09:17:57;;;;;;;4.75;3.35;;;;;;;28.26;49.97;102489.88;5191160;28;20062;-72
2023/09/04 09:20:39;;;;;;;5.50;3.50;;;;;;;27.90;52.53;102482.19;5178005;28;20367;-70
2023/09/04 09:23:14;;;;;;;6.78;3.72;;;;;;;27.27;52.30;102488.81;5181922;28;20031;-70
2023/09/04 09:25:54;;;;;;;4.18;3.08;;;;;;;27.75;49.62;102493.59;5187740;28;20034;-73
2023/09/04 09:28:25;;;;;;;7.32;3.33;;;;;;;27.14;51.81;102486.56;5189606;28;20460;-73
2023/09/04 09:30:58;;;;;;;4.10;3.22;;;;;;;27.61;47.97;102495.09;5190611;28;20037;-73
2023/09/04 09:33:29;;;;;;;4.22;3.40;;;;;;;27.37;53.39;102498.59;5188389;28;20041;-72
2023/09/04 09:36:01;;;;;;;5.53;3.55;;;;;;;27.16;54.32;102494.50;5187291;28;20050;-69
2023/09/04 09:38:32;;;;;;;4.40;2.88;;;;;;;27.34;49.27;102494.38;5189434;28;20034;-69
2023/09/04 09:41:04;;;;;;;5.00;2.92;;;;;;;27.48;49.67;102492.88;5189410;28;20703;-69
2023/09/04 09:43:35;;;;;;;9.85;3.55;;;;;;;27.21;47.77;102485.94;5195066;28;20078;-72
2023/09/04 09:46:08;;;;;;;15.38;3.25;;;;;;;27.39;45.77;102489.34;5185170;28;20023;-72
2023/09/04 09:48:40;;;;;;;3.92;3.03;;;;;;;27.01;50.71;102481.63;5186587;28;20072;-73
2023/09/04 09:51:13;;;;;;;5.80;2.72;;;;;;;26.80;55.24;102490.97;5179709;28;20077;-74
2023/09/04 09:53:49;;;;;;;5.43;4.15;;;;;;;26.98;50.42;102491.88;5189384;28;20038;-73
2023/09/04 09:56:21;;;;;;;7.97;2.63;;;;;;;26.96;51.40;102481.28;5190177;28;20180;-73
2023/09/04 09:58:52;;;;;;;4.43;2.47;;;;;;;27.00;48.82;102469.19;5190946;28;20941;-74
2023/09/04 10:01:27;;;;;;;5.07;2.40;;;;;;;27.10;49.97;102474.47;5188525;28;20034;-73
2023/09/04 10:03:59;;;;;;;7.57;2.17;;;;;;;26.99;53.41;102472.03;5176856;28;20035;-72
2023/09/04 10:06:34;;;;;;;5.57;2.72;;;;;;;26.96;51.02;102473.22;5188676;28;20126;-72
2023/09/04 10:09:07;;;;;;;6.07;2.70;;;;;;;26.97;50.64;102460.63;5190072;28;20117;-73
2023/09/04 10:11:43;;;;;;;6.78;2.70;;;;;;;27.20;48.95;102458.19;5182360;28;20033;-73
2023/09/04 10:14:24;;;;;;;5.75;3.17;;;;;;;27.21;52.49;102465.28;5188530;28;20549;-72
2023/09/04 10:17:01;;;;;;;4.03;2.85;;;;;;;27.47;47.89;102469.69;5189838;28;20493;-72
2023/09/04 10:19:37;;;;;;;5.35;2.55;;;;;;;27.13;54.76;102458.00;5190538;28;20061;-72
2023/09/04 10:22:16;;;;;;;4.55;2.80;;;;;;;27.50;48.96;102458.59;5187940;28;20026;-71
2023/09/04 10:25:12;;;;;;;5.15;2.60;;;;;;;27.51;51.43;102454.88;5200149;28;20100;-72
2023/09/04 10:27:50;;;;;;;5.47;2.95;;;;;;;27.91;47.56;102459.63;5187543;28;20053;-72
2023/09/04 10:30:25;;;;;;;3.95;2.60;;;;;;;27.53;51.28;102450.19;5183591;28;20692;-72
2023/09/04 10:32:57;;;;;;;4.18;3.00;;;;;;;27.97;45.19;102441.97;5187278;28;20581;-71
2023/09/04 10:35:28;;;;;;;5.47;2.38;;;;;;;28.24;47.01;102440.72;5186154;28;20058;-71
2023/09/04 10:38:00;;;;;;;7.30;2.72;;;;;;;28.57;47.46;102439.84;5186110;28;20405;-72
2023/09/04 10:40:31;;;;;;;4.55;2.15;;;;;;;29.10;43.80;102441.09;5187773;28;20034;-73
2023/09/04 10:43:03;;;;;;;4.45;2.30;;;;;;;29.49;40.67;102422.28;5188514;28;20069;-72
2023/09/04 10:45:35;;;;;;;3.78;2.13;;;;;;;29.49;41.81;102423.13;5189502;28;20160;-72
2023/09/04 10:48:06;;;;;;;4.32;1.77;;;;;;;30.15;39.02;102427.09;5188667;28;20075;-72
2023/09/04 10:50:39;;;;;;;4.50;1.90;;;;;;;30.38;36.23;102437.00;5188965;28;20038;-72
2023/09/04 10:53:10;;;;;;;4.32;2.03;;;;;;;30.15;36.60;102429.81;5190143;28;20109;-72
2023/09/04 10:56:11;;;;;;;3.00;2.15;;;;;;;30.68;37.71;102430.72;5190596;28;20117;-72
2023/09/04 10:58:58;;;;;;;6.03;2.30;;;;;;;30.65;39.32;102425.72;5190871;28;20041;-72
2023/09/04 11:01:36;;;;;;;4.45;2.22;;;;;;;30.66;37.85;102422.81;5190367;28;20113;-72
2023/09/04 11:04:08;;;;;;;2.65;1.92;;;;;;;30.36;39.06;102416.59;5189754;28;20113;-72
2023/09/04 11:06:40;;;;;;;2.70;1.90;;;;;;;30.29;36.22;102406.53;5189946;28;20455;-72
2023/09/04 11:09:14;;;;;;;3.03;1.90;;;;;;;29.99;38.30;102414.59;5190242;28;20067;-72
2023/09/04 11:11:56;;;;;;;2.72;1.63;;;;;;;30.14;39.95;102408.38;5190594;28;20390;-72
2023/09/04 11:14:32;;;;;;;3.28;2.25;;;;;;;30.31;36.95;102395.53;5193456;28;20089;-72
2023/09/04 11:17:06;;;;;;;6.45;2.10;;;;;;;30.29;36.41;102409.25;5192750;28;20445;-72
2023/09/04 11:19:38;;;;;;;4.00;2.20;;;;;;;29.92;39.01;102398.31;5193318;28;20022;-72
2023/09/04 11:22:19;;;;;;;5.03;2.30;;;;;;;29.67;39.56;102409.31;5191829;28;20046;-72
2023/09/04 11:24:53;;;;;;;4.68;2.30;;;;;;;29.45;40.01;102401.06;5194406;28;20041;-72
2023/09/04 11:27:25;;;;;;;4.93;1.92;;;;;;;29.54;40.47;102406.38;5193333;28;20030;-72
2023/09/04 11:30:03;;;;;;;3.47;2.50;;;;;;;29.49;41.22;102392.59;5194047;28;20049;-72
2023/09/04 11:32:37;;;;;;;4.50;2.28;;;;;;;29.75;41.85;102394.09;5194035;28;20298;-72
2023/09/04 11:35:12;;;;;;;5.40;1.90;;;;;;;29.70;40.63;102386.53;5192137;28;20409;-72